Time;durP1;ratioP1;P1;durP2;ratioP2;P2;SDS_P1;SDS_P2;PMS_P1;PMS_P2;Temp;Humidity;BMP_temperature;BMP_pressure;BME280_temperature;BME280_humidity;BME280_pressure;Samples;Min_cycle;Max_cycle;Signal;HPM_P1;HPM_P2
2021/03/27 00:01:23;;;;;;;6.07;4.65;;;;;;;;;;5037227;28;20071;-56
2021/03/27 00:04:04;;;;;;;6.03;4.50;;;;;;;;;;5036309;28;20021;-56
2021/03/27 00:06:39;;;;;;;9.57;4.10;;;;;;;;;;5054295;28;20374;-56
2021/03/27 00:09:10;;;;;;;8.98;4.85;;;;;;;;;;5037427;28;20057;-55
2021/03/27 00:11:36;;;;;;;;;;;;;;;;;;5054580;28;20037;-59
2021/03/27 00:14:10;;;;;;;6.75;4.10;;;;;;;;;;5054372;28;19909;-57
2021/03/27 00:16:39;;;;;;;7.18;4.38;;;;;;;;;;5036111;28;20025;-57
2021/03/27 00:19:35;;;;;;;6.78;4.63;;;;;;;;;;5036401;28;20025;-57
2021/03/27 00:22:05;;;;;;;7.63;4.28;;;;;;;;;;5054555;28;20033;-56
2021/03/27 00:24:38;;;;;;;;;;;;;;;;;;5037691;28;20025;-57
2021/03/27 00:27:35;;;;;;;5.80;4.03;;;;;;;;;;5053862;28;19905;-57
2021/03/27 00:30:07;;;;;;;5.82;3.92;;;;;;;;;;5034177;28;20033;-57
2021/03/27 00:32:39;;;;;;;5.28;3.75;;;;;;;;;;5054143;28;20052;-57
2021/03/27 00:35:13;;;;;;;5.32;4.05;;;;;;;;;;5053769;28;20515;-57
2021/03/27 00:37:50;;;;;;;4.22;3.15;;;;;;;;;;5053227;28;20029;-57
2021/03/27 00:40:23;;;;;;;5.45;3.95;;;;;;;;;;5035442;28;20036;-57
2021/03/27 00:42:57;;;;;;;5.05;3.88;;;;;;;;;;5053980;28;20196;-57
2021/03/27 00:45:37;;;;;;;6.90;3.25;;;;;;;;;;5054154;28;20351;-56
2021/03/27 00:48:06;;;;;;;8.07;4.37;;;;;;;;;;5053379;28;20036;-57
2021/03/27 00:51:03;;;;;;;4.30;2.90;;;;;;;;;;5053511;28;20310;-57
2021/03/27 00:53:41;;;;;;;9.05;3.40;;;;;;;;;;5003561;28;20049;-57
2021/03/27 00:56:37;;;;;;;4.22;2.95;;;;;;;;;;5035127;28;20139;-57
2021/03/27 00:59:15;;;;;;;4.95;3.35;;;;;;;;;;4966251;28;20034;-57
2021/03/27 01:01:48;;;;;;;6.13;3.53;;;;;;;;;;5054199;28;20039;-59
2021/03/27 01:04:20;;;;;;;4.55;3.80;;;;;;;;;;5034631;28;20029;-57
2021/03/27 01:06:54;;;;;;;4.13;2.90;;;;;;;;;;5053466;28;20053;-56
2021/03/27 01:09:33;;;;;;;5.68;3.50;;;;;;;;;;5036159;28;20037;-57
2021/03/27 01:12:11;;;;;;;4.28;2.97;;;;;;;;;;5036203;28;20471;-57
2021/03/27 01:14:48;;;;;;;4.22;3.42;;;;;;;;;;5036123;28;20032;-57
2021/03/27 01:17:21;;;;;;;7.95;3.50;;;;;;;;;;5053098;28;20028;-56
2021/03/27 01:20:12;;;;;;;6.95;3.90;;;;;;;;;;5035013;28;20032;-56
2021/03/27 01:22:38;;;;;;;4.72;3.17;;;;;;;;;;5052170;28;20033;-57
2021/03/27 01:25:13;;;;;;;3.72;3.15;;;;;;;;;;5053218;28;20026;-57
2021/03/27 01:27:55;;;;;;;3.70;2.78;;;;;;;;;;5053840;28;20060;-57
2021/03/27 01:30:27;;;;;;;5.47;3.63;;;;;;;;;;5053435;28;20032;-55
2021/03/27 01:33:05;;;;;;;6.20;3.17;;;;;;;;;;5053127;28;20032;-57
2021/03/27 01:35:50;;;;;;;8.05;3.97;;;;;;;;;;5036590;28;20035;-57
2021/03/27 01:38:27;;;;;;;4.88;3.63;;;;;;;;;;5034730;28;20021;-57
2021/03/27 01:41:17;;;;;;;5.03;3.70;;;;;;;;;;5052761;28;20063;-56
2021/03/27 01:44:01;;;;;;;4.72;3.38;;;;;;;;;;5053456;28;20021;-57
2021/03/27 01:46:43;;;;;;;5.88;3.95;;;;;;;;;;5053090;28;20029;-56
2021/03/27 01:49:21;;;;;;;6.18;4.00;;;;;;;;;;5035612;28;20025;-56
2021/03/27 01:52:02;;;;;;;5.47;3.60;;;;;;;;;;5057253;28;20047;-57
2021/03/27 01:54:31;;;;;;;;;;;;;;;;;;5039012;28;20029;-57
2021/03/27 01:57:16;;;;;;;5.35;3.78;;;;;;;;;;5037957;28;19924;-57
2021/03/27 01:59:55;;;;;;;5.35;3.45;;;;;;;;;;5056821;28;20025;-57
2021/03/27 02:02:58;;;;;;;3.90;3.42;;;;;;;;;;5056330;28;20047;-55
2021/03/27 02:06:03;;;;;;;5.65;3.47;;;;;;;;;;5056273;28;20029;-57
2021/03/27 02:08:49;;;;;;;5.47;3.83;;;;;;;;;;4975591;28;20090;-56
2021/03/27 02:11:44;;;;;;;5.68;4.45;;;;;;;;;;5006389;28;20423;-57
2021/03/27 02:14:14;;;;;;;5.10;4.10;;;;;;;;;;5038041;28;20029;-55
2021/03/27 02:16:49;;;;;;;5.38;4.38;;;;;;;;;;5056252;28;20028;-57
2021/03/27 02:19:43;;;;;;;4.20;3.65;;;;;;;;;;5057149;28;20159;-57
2021/03/27 02:22:30;;;;;;;5.25;3.88;;;;;;;;;;5038044;28;20033;-57
2021/03/27 02:28:19;;;;;;;7.32;4.47;;;;;;;;;;5001858;28;20031;-56
2021/03/27 02:30:55;;;;;;;6.22;4.45;;;;;;;;;;5038241;28;20025;-58
2021/03/27 02:33:44;;;;;;;5.75;4.28;;;;;;;;;;5021415;28;20028;-58
2021/03/27 02:36:16;;;;;;;9.38;4.70;;;;;;;;;;5055917;28;20039;-58
2021/03/27 02:39:04;;;;;;;5.65;4.40;;;;;;;;;;5055617;28;20128;-58
2021/03/27 02:41:42;;;;;;;6.22;5.13;;;;;;;;;;5056148;28;20041;-57
2021/03/27 02:44:30;;;;;;;5.47;4.20;;;;;;;;;;5056534;28;20033;-58
2021/03/27 02:46:59;;;;;;;5.03;4.32;;;;;;;;;;5055569;28;20025;-58
2021/03/27 02:49:50;;;;;;;6.45;5.40;;;;;;;;;;5055829;28;20052;-58
2021/03/27 02:52:43;;;;;;;9.90;4.00;;;;;;;;;;5055804;28;20040;-57
2021/03/27 02:55:27;;;;;;;7.00;5.47;;;;;;;;;;5037821;28;20086;-58
2021/03/27 02:58:29;;;;;;;8.57;4.60;;;;;;;;;;5037132;28;20064;-58
2021/03/27 03:01:25;;;;;;;7.30;3.95;;;;;;;;;;4996545;28;20045;-58
2021/03/27 03:03:57;;;;;;;6.18;4.60;;;;;;;;;;5038090;28;20029;-58
2021/03/27 03:06:38;;;;;;;6.35;4.60;;;;;;;;;;5055738;28;20021;-58
2021/03/27 03:09:26;;;;;;;7.13;4.72;;;;;;;;;;5055477;28;20095;-59
2021/03/27 03:12:01;;;;;;;6.15;3.95;;;;;;;;;;5056034;28;20091;-59
2021/03/27 03:17:55;;;;;;;4.20;3.10;;;;;;;;;;5055272;28;20050;-58
2021/03/27 03:20:27;;;;;;;4.82;3.05;;;;;;;;;;5020038;28;20091;-59
2021/03/27 03:23:12;;;;;;;4.90;3.67;;;;;;;;;;5037325;28;20028;-58
2021/03/27 03:26:07;;;;;;;6.35;3.30;;;;;;;;;;5055044;28;20111;-59
2021/03/27 03:29:03;;;;;;;4.82;3.38;;;;;;;;;;5026010;28;20040;-58
2021/03/27 03:31:48;;;;;;;4.57;3.10;;;;;;;;;;5037660;28;20084;-58
2021/03/27 03:34:33;;;;;;;6.35;2.70;;;;;;;;;;5037025;28;20024;-59
2021/03/27 03:37:03;;;;;;;8.02;3.63;;;;;;;;;;5055150;28;20033;-59
2021/03/27 03:39:48;;;;;;;3.88;3.28;;;;;;;;;;5054948;28;20029;-59
2021/03/27 03:42:35;;;;;;;5.18;3.13;;;;;;;;;;5054737;28;20099;-58
2021/03/27 03:51:13;;;;;;;6.38;2.92;;;;;;;;;;5054726;28;20037;-58
2021/03/27 03:53:48;;;;;;;4.00;2.97;;;;;;;;;;5054895;28;20033;-58
2021/03/27 03:56:28;;;;;;;3.58;2.13;;;;;;;;;;5054793;28;20432;-58
2021/03/27 03:59:28;;;;;;;2.92;1.00;;;;;;;;;;5035782;28;20033;-58
2021/03/27 04:02:16;;;;;;;2.55;1.05;;;;;;;;;;5038480;28;20032;-59
2021/03/27 04:05:06;;;;;;;6.53;0.98;;;;;;;;;;5054941;28;20033;-58
2021/03/27 04:10:35;;;;;;;1.27;0.70;;;;;;;;;;5054610;28;20040;-58
2021/03/27 04:13:02;;;;;;;1.38;0.70;;;;;;;;;;5036347;28;20025;-58
2021/03/27 04:16:01;;;;;;;0.90;0.55;;;;;;;;;;5054247;28;20064;-58
2021/03/27 04:18:35;;;;;;;2.00;0.85;;;;;;;;;;5038676;28;20111;-58
2021/03/27 04:21:08;;;;;;;4.10;0.43;;;;;;;;;;5053851;28;20032;-58
2021/03/27 04:23:43;;;;;;;1.42;0.55;;;;;;;;;;5054481;28;20141;-56
2021/03/27 04:26:21;;;;;;;0.50;0.30;;;;;;;;;;5054659;28;20084;-58
2021/03/27 04:28:57;;;;;;;3.05;0.60;;;;;;;;;;5054603;28;20375;-58
2021/03/27 04:34:55;;;;;;;0.38;0.30;;;;;;;;;;5054542;28;20040;-57
2021/03/27 04:37:47;;;;;;;0.70;0.38;;;;;;;;;;5054902;28;20039;-58
2021/03/27 04:40:38;;;;;;;2.85;0.22;;;;;;;;;;5053611;28;20017;-59
2021/03/27 04:43:11;;;;;;;0.43;0.22;;;;;;;;;;5036543;28;20430;-58
2021/03/27 04:45:45;;;;;;;0.88;0.40;;;;;;;;;;5054810;28;20064;-59
2021/03/27 04:51:42;;;;;;;1.10;0.50;;;;;;;;;;5045634;28;20045;-58
2021/03/27 04:54:18;;;;;;;0.93;0.52;;;;;;;;;;5054337;28;20083;-58
2021/03/27 04:57:06;;;;;;;2.03;0.82;;;;;;;;;;5053263;28;20041;-58
2021/03/27 04:59:53;;;;;;;0.82;0.40;;;;;;;;;;5054349;28;20359;-58
2021/03/27 05:02:40;;;;;;;1.08;0.70;;;;;;;;;;5054221;28;20033;-57
2021/03/27 05:05:28;;;;;;;3.63;0.35;;;;;;;;;;5053319;28;20458;-58
2021/03/27 05:08:07;;;;;;;2.55;0.85;;;;;;;;;;5053423;28;20467;-58
2021/03/27 05:10:57;;;;;;;1.92;0.70;;;;;;;;;;5035839;28;20026;-58
2021/03/27 05:13:41;;;;;;;0.60;0.30;;;;;;;;;;5054251;28;20025;-58
2021/03/27 05:16:53;;;;;;;1.60;0.30;;;;;;;;;;5035550;28;20029;-59
2021/03/27 05:22:44;;;;;;;0.43;0.25;;;;;;;;;;5053018;28;20048;-58
2021/03/27 05:25:29;;;;;;;0.93;0.43;;;;;;;;;;5056725;28;20021;-58
2021/03/27 05:28:16;;;;;;;0.52;0.30;;;;;;;;;;5057240;28;20096;-58
2021/03/27 05:30:50;;;;;;;0.70;0.35;;;;;;;;;;5057559;28;20047;-57
2021/03/27 05:33:37;;;;;;;0.70;0.43;;;;;;;;;;5057627;28;20099;-58
2021/03/27 05:36:12;;;;;;;0.80;0.40;;;;;;;;;;5039252;28;20025;-58
2021/03/27 05:38:51;;;;;;;0.80;0.40;;;;;;;;;;5057480;28;20017;-58
2021/03/27 05:41:36;;;;;;;0.98;0.52;;;;;;;;;;5056539;28;20045;-56
2021/03/27 05:44:35;;;;;;;0.52;0.30;;;;;;;;;;5057601;28;20032;-57
2021/03/27 05:50:28;;;;;;;0.50;0.30;;;;;;;;;;5050353;28;20027;-57
2021/03/27 05:52:54;;;;;;;0.22;0.15;;;;;;;;;;5040198;28;20060;-57
2021/03/27 05:55:51;;;;;;;2.42;0.55;;;;;;;;;;5056502;28;20422;-57
2021/03/27 06:01:44;;;;;;;0.82;0.40;;;;;;;;;;5035305;28;20037;-57
2021/03/27 06:04:13;;;;;;;0.82;0.50;;;;;;;;;;5057065;28;20033;-58
2021/03/27 06:06:43;;;;;;;0.73;0.28;;;;;;;;;;5056781;28;20074;-58
2021/03/27 06:09:48;;;;;;;0.65;0.38;;;;;;;;;;5057470;28;20044;-58
2021/03/27 06:12:56;;;;;;;1.73;0.57;;;;;;;;;;4973788;28;20033;-58
2021/03/27 06:15:33;;;;;;;0.10;0.10;;;;;;;;;;4956406;28;20118;-58
2021/03/27 06:18:20;;;;;;;0.75;0.30;;;;;;;;;;4956364;29;20086;-58
2021/03/27 06:20:54;;;;;;;0.85;0.40;;;;;;;;;;4956643;29;20118;-56
2021/03/27 06:23:54;;;;;;;0.43;0.20;;;;;;;;;;4956565;29;20078;-58
2021/03/27 06:26:40;;;;;;;2.28;0.47;;;;;;;;;;4989742;28;20051;-57
2021/03/27 06:29:25;;;;;;;1.05;0.40;;;;;;;;;;5056957;28;20027;-57
2021/03/27 06:32:13;;;;;;;0.40;0.20;;;;;;;;;;5056379;28;20033;-56
2021/03/27 06:35:00;;;;;;;0.70;0.47;;;;;;;;;;5056395;28;20121;-55
2021/03/27 06:38:01;;;;;;;0.95;0.50;;;;;;;;;;5056998;28;20032;-57
2021/03/27 06:40:59;;;;;;;1.02;0.45;;;;;;;;;;5056007;28;20037;-57
2021/03/27 06:43:44;;;;;;;2.10;0.65;;;;;;;;;;5056793;28;20025;-57
2021/03/27 06:46:42;;;;;;;8.10;0.60;;;;;;;;;;5055943;28;20032;-56
2021/03/27 06:49:27;;;;;;;1.17;0.55;;;;;;;;;;5056188;28;20025;-57
2021/03/27 06:52:11;;;;;;;2.95;0.75;;;;;;;;;;5056121;28;20037;-57
2021/03/27 06:54:43;;;;;;;1.17;0.63;;;;;;;;;;5056065;28;20029;-57
2021/03/27 06:57:26;;;;;;;2.05;0.47;;;;;;;;;;5037540;28;20041;-57
2021/03/27 07:00:13;;;;;;;1.48;0.40;;;;;;;;;;5056150;28;20021;-57
2021/03/27 07:03:07;;;;;;;1.75;0.57;;;;;;;;;;5056542;28;20434;-58
2021/03/27 07:05:45;;;;;;;0.98;0.50;;;;;;;;;;5037570;28;20033;-56
2021/03/27 07:08:33;;;;;;;1.15;0.50;;;;;;;;;;5056589;28;20032;-57
2021/03/27 07:11:22;;;;;;;2.97;0.77;;;;;;;;;;5037546;28;20063;-57
2021/03/27 07:14:00;;;;;;;3.05;0.77;;;;;;;;;;5055617;28;20033;-58
2021/03/27 07:19:34;;;;;;;;;;;;;;;;;;5055858;28;20061;-56
2021/03/27 07:22:19;;;;;;;;;;;;;;;;;;;;;
2021/03/27 07:28:07;;;;;;;1.02;0.57;;;;;;;;;;5049282;28;20029;-55
2021/03/27 07:31:09;;;;;;;3.03;0.70;;;;;;;;;;5055655;28;20044;-58
2021/03/27 07:34:04;;;;;;;4.78;1.17;;;;;;;;;;5037952;28;20051;-57
2021/03/27 07:37:01;;;;;;;0.68;0.28;;;;;;;;;;5056075;28;20433;-57
2021/03/27 07:39:54;;;;;;;1.80;0.30;;;;;;;;;;5055054;28;20090;-55
2021/03/27 07:42:41;;;;;;;0.55;0.25;;;;;;;;;;5014098;28;20103;-58
2021/03/27 07:48:39;;;;;;;1.02;0.40;;;;;;;;;;5046798;28;20025;-57
2021/03/27 07:51:25;;;;;;;0.60;0.30;;;;;;;;;;5034119;28;20033;-58
2021/03/27 07:54:27;;;;;;;0.57;0.28;;;;;;;;;;5054489;28;20040;-56
2021/03/27 07:57:12;;;;;;;2.03;1.42;;;;;;;;;;5036752;28;20178;-57
2021/03/27 08:00:04;;;;;;;2.10;0.68;;;;;;;;;;5055198;28;20021;-57
2021/03/27 08:05:49;;;;;;;1.60;0.82;;;;;;;;;;5048782;28;20415;-57
2021/03/27 08:08:59;;;;;;;2.40;0.50;;;;;;;;;;5055212;28;20095;-57
2021/03/27 08:11:44;;;;;;;3.03;0.65;;;;;;;;;;4954784;29;20035;-55
2021/03/27 08:14:28;;;;;;;4.18;0.55;;;;;;;;;;4954267;29;20039;-56
2021/03/27 08:17:22;;;;;;;2.30;0.70;;;;;;;;;;5030113;28;20104;-55
2021/03/27 08:20:10;;;;;;;0.90;0.47;;;;;;;;;;5055109;28;20354;-57
2021/03/27 08:22:55;;;;;;;0.60;0.35;;;;;;;;;;5054362;28;20037;-54
2021/03/27 08:26:00;;;;;;;1.35;0.35;;;;;;;;;;5036491;28;20356;-57
2021/03/27 08:28:39;;;;;;;1.40;0.32;;;;;;;;;;5054784;28;20463;-56
2021/03/27 08:31:11;;;;;;;0.90;0.45;;;;;;;;;;5054704;28;20036;-57
2021/03/27 08:33:59;;;;;;;0.80;0.40;;;;;;;;;;5053945;28;20044;-57
2021/03/27 08:36:46;;;;;;;2.63;0.82;;;;;;;;;;5054216;28;20528;-56
2021/03/27 08:39:37;;;;;;;0.38;0.20;;;;;;;;;;5036110;28;20041;-56
2021/03/27 08:42:16;;;;;;;0.63;0.40;;;;;;;;;;5054064;28;20029;-57
2021/03/27 08:44:44;;;;;;;2.83;0.63;;;;;;;;;;5053686;28;20025;-55
2021/03/27 08:47:29;;;;;;;1.45;0.38;;;;;;;;;;5035993;28;20033;-57
2021/03/27 08:50:22;;;;;;;2.00;0.40;;;;;;;;;;5053975;28;20493;-56
2021/03/27 08:53:24;;;;;;;0.17;0.05;;;;;;;;;;5054498;28;20375;-55
2021/03/27 08:56:09;;;;;;;3.53;1.05;;;;;;;;;;5036563;28;20025;-57
2021/03/27 08:58:36;;;;;;;0.77;0.28;;;;;;;;;;5053524;28;20475;-58
2021/03/27 09:01:17;;;;;;;0.50;0.35;;;;;;;;;;5053661;28;20491;-57
2021/03/27 09:04:22;;;;;;;0.60;0.20;;;;;;;;;;5054154;28;20057;-55
2021/03/27 09:07:06;;;;;;;2.08;0.55;;;;;;;;;;5053143;28;20490;-58
2021/03/27 09:10:04;;;;;;;;;;;;;;;;;;;;;
2021/03/27 09:13:02;;;;;;;0.82;0.22;;;;;;;;;;5054111;28;20033;-56
2021/03/27 09:16:08;;;;;;;3.03;0.70;;;;;;;;;;5054088;28;20040;-56
2021/03/27 09:18:53;;;;;;;0.95;0.50;;;;;;;;;;5020921;28;20111;-57
2021/03/27 09:21:40;;;;;;;0.32;0.20;;;;;;;;;;5054037;28;20040;-58
2021/03/27 09:24:49;;;;;;;4.55;0.70;;;;;;;;;;5036570;28;20033;-58
2021/03/27 09:27:21;;;;;;;0.93;0.55;;;;;;;;;;5035667;28;20033;-58
2021/03/27 09:30:09;;;;;;;0.35;0.20;;;;;;;;;;5053390;28;20043;-55
2021/03/27 09:33:09;;;;;;;0.88;0.60;;;;;;;;;;5054043;28;20099;-58
2021/03/27 09:35:47;;;;;;;1.05;0.30;;;;;;;;;;5053843;28;20055;-56
2021/03/27 09:38:38;;;;;;;1.20;0.50;;;;;;;;;;5053480;28;20363;-56
2021/03/27 09:41:14;;;;;;;0.65;0.40;;;;;;;;;;5053349;28;20422;-57
2021/03/27 09:44:14;;;;;;;0.70;0.38;;;;;;;;;;5053913;28;20071;-57
2021/03/27 09:46:44;;;;;;;0.77;0.33;;;;;;;;;;5035198;28;20057;-58
2021/03/27 09:49:31;;;;;;;0.75;0.63;;;;;;;;;;5052900;28;20260;-58
2021/03/27 09:52:20;;;;;;;0.68;0.30;;;;;;;;;;5053080;28;20050;-58
2021/03/27 09:55:08;;;;;;;0.60;0.10;;;;;;;;;;5053422;28;20418;-58
2021/03/27 10:01:32;;;;;;;0.38;0.20;;;;;;;;;;4972085;28;20046;-57
2021/03/27 10:04:17;;;;;;;1.08;0.30;;;;;;;;;;5034634;28;20033;-57
2021/03/27 10:07:02;;;;;;;2.97;0.93;;;;;;;;;;5052969;28;20116;-58
2021/03/27 10:09:40;;;;;;;1.50;0.45;;;;;;;;;;5035355;28;20045;-58
2021/03/27 10:15:12;;;;;;;1.48;0.30;;;;;;;;;;5056487;28;20037;-58
2021/03/27 10:17:48;;;;;;;0.45;0.20;;;;;;;;;;5056192;28;20025;-59
2021/03/27 10:20:36;;;;;;;1.33;0.52;;;;;;;;;;5037689;28;20033;-59
2021/03/27 10:23:11;;;;;;;2.47;0.20;;;;;;;;;;5056688;28;20018;-59
2021/03/27 10:26:03;;;;;;;0.60;0.20;;;;;;;;;;5039127;28;20344;-58
2021/03/27 10:28:35;;;;;;;1.50;0.40;;;;;;;;;;5035514;28;20036;-58
2021/03/27 10:31:24;;;;;;;1.15;0.63;;;;;;;;;;5038091;28;20474;-58
2021/03/27 10:34:03;;;;;;;6.13;0.95;;;;;;;;;;5037833;28;20356;-58
2021/03/27 10:36:51;;;;;;;0.65;0.28;;;;;;;;;;5038223;28;20060;-58
2021/03/27 10:39:20;;;;;;;0.93;0.38;;;;;;;;;;5055699;28;20447;-58
2021/03/27 10:42:06;;;;;;;0.50;0.22;;;;;;;;;;5055654;28;20044;-58
2021/03/27 10:45:02;;;;;;;1.52;0.45;;;;;;;;;;5038067;28;20025;-58
2021/03/27 10:47:34;;;;;;;0.98;0.30;;;;;;;;;;4958060;28;20031;-57
2021/03/27 10:50:21;;;;;;;1.98;0.93;;;;;;;;;;5056005;28;20450;-58
2021/03/27 10:52:50;;;;;;;1.90;0.60;;;;;;;;;;5056028;28;20024;-58
2021/03/27 10:55:19;;;;;;;1.33;0.77;;;;;;;;;;5054663;28;20111;-58
2021/03/27 10:57:46;;;;;;;0.90;0.38;;;;;;;;;;5037162;28;20049;-58
2021/03/27 11:00:38;;;;;;;1.15;0.28;;;;;;;;;;5055395;28;20033;-58
2021/03/27 11:03:23;;;;;;;5.40;2.03;;;;;;;;;;5037288;28;20029;-58
2021/03/27 11:06:04;;;;;;;1.38;0.43;;;;;;;;;;5055371;28;20032;-58
2021/03/27 11:09:07;;;;;;;0.63;0.30;;;;;;;;;;5055374;28;20378;-58
2021/03/27 11:11:54;;;;;;;6.88;0.52;;;;;;;;;;5055589;28;20061;-58
2021/03/27 11:14:40;;;;;;;1.05;0.43;;;;;;;;;;5056113;28;20086;-58
2021/03/27 11:20:34;;;;;;;1.38;0.60;;;;;;;;;;5046634;28;20067;-58
2021/03/27 11:23:18;;;;;;;1.10;0.30;;;;;;;;;;5055667;28;20459;-58
2021/03/27 11:25:54;;;;;;;2.03;0.30;;;;;;;;;;5036697;28;20025;-57
2021/03/27 11:28:22;;;;;;;1.90;0.25;;;;;;;;;;5037029;28;20410;-58
2021/03/27 11:31:01;;;;;;;0.32;0.13;;;;;;;;;;5036683;28;20414;-58
2021/03/27 11:34:03;;;;;;;1.15;0.32;;;;;;;;;;5055455;28;20374;-58
2021/03/27 11:36:47;;;;;;;1.08;0.50;;;;;;;;;;4973401;28;20493;-58
2021/03/27 11:39:30;;;;;;;1.20;0.50;;;;;;;;;;5048563;28;20087;-57
2021/03/27 11:42:02;;;;;;;0.50;0.22;;;;;;;;;;5054564;28;20041;-58
2021/03/27 11:44:47;;;;;;;7.38;0.70;;;;;;;;;;5036180;28;20482;-57
2021/03/27 11:47:18;;;;;;;0.57;0.28;;;;;;;;;;5036756;28;20043;-58
2021/03/27 11:49:44;;;;;;;2.05;0.40;;;;;;;;;;5054388;28;20013;-57
2021/03/27 11:52:25;;;;;;;1.00;0.40;;;;;;;;;;5055141;28;20093;-58
2021/03/27 11:55:00;;;;;;;;;;;;;;;;;;5036472;28;20049;-58
2021/03/27 11:57:44;;;;;;;;;;;;;;;;;;;;;
2021/03/27 12:03:15;;;;;;;0.80;0.32;;;;;;;;;;5054238;28;20040;-58
2021/03/27 12:06:00;;;;;;;0.73;0.45;;;;;;;;;;5054284;28;20028;-58
2021/03/27 12:08:41;;;;;;;1.83;0.55;;;;;;;;;;5055438;28;20025;-58
2021/03/27 12:11:26;;;;;;;1.50;0.45;;;;;;;;;;5036260;28;20037;-58
2021/03/27 12:14:06;;;;;;;1.65;0.60;;;;;;;;;;5055093;28;20037;-58
2021/03/27 12:16:49;;;;;;;6.32;0.85;;;;;;;;;;5055351;28;20052;-58
2021/03/27 12:19:29;;;;;;;2.38;0.80;;;;;;;;;;5036003;28;20032;-58
2021/03/27 12:22:27;;;;;;;0.73;0.30;;;;;;;;;;5053892;28;20155;-59
2021/03/27 12:25:15;;;;;;;0.20;0.10;;;;;;;;;;5038285;28;20025;-58
2021/03/27 12:28:10;;;;;;;3.83;0.73;;;;;;;;;;5023638;28;20040;-58
2021/03/27 12:30:44;;;;;;;1.50;0.50;;;;;;;;;;5019933;28;20048;-58
2021/03/27 12:33:13;;;;;;;0.68;0.30;;;;;;;;;;5054063;28;20025;-59
2021/03/27 12:35:52;;;;;;;2.42;0.52;;;;;;;;;;5053821;28;20021;-58
2021/03/27 12:41:24;;;;;;;1.48;0.68;;;;;;;;;;5039566;28;20048;-58
2021/03/27 12:43:58;;;;;;;3.80;1.02;;;;;;;;;;5054078;28;20053;-58
2021/03/27 12:46:37;;;;;;;2.00;0.90;;;;;;;;;;5053863;28;20029;-58
2021/03/27 12:49:27;;;;;;;2.40;0.65;;;;;;;;;;5036356;28;20434;-58
2021/03/27 12:52:02;;;;;;;2.08;0.75;;;;;;;;;;5053239;28;20074;-58
2021/03/27 12:54:46;;;;;;;1.38;0.40;;;;;;;;;;5053216;28;20029;-58
2021/03/27 12:57:37;;;;;;;1.05;0.40;;;;;;;;;;5019061;28;20053;-58
2021/03/27 13:00:21;;;;;;;0.80;0.22;;;;;;;;;;5036543;28;20398;-58
2021/03/27 13:02:59;;;;;;;2.20;0.65;;;;;;;;;;5053650;28;20040;-58
2021/03/27 13:06:04;;;;;;;3.13;0.70;;;;;;;;;;5035307;28;20040;-58
2021/03/27 13:08:36;;;;;;;1.55;0.70;;;;;;;;;;5053136;28;20103;-58
2021/03/27 13:11:24;;;;;;;1.45;0.70;;;;;;;;;;5053083;28;20025;-58
2021/03/27 13:13:53;;;;;;;3.28;0.70;;;;;;;;;;5035353;28;20048;-58
2021/03/27 13:19:33;;;;;;;0.68;0.30;;;;;;;;;;5052935;28;20040;-58
2021/03/27 13:22:14;;;;;;;4.13;0.70;;;;;;;;;;5034846;28;20037;-57
2021/03/27 13:25:02;;;;;;;2.97;0.90;;;;;;;;;;5053771;28;20098;-57
2021/03/27 13:27:51;;;;;;;1.25;0.40;;;;;;;;;;5034948;28;20087;-58
2021/03/27 13:30:40;;;;;;;2.85;0.75;;;;;;;;;;5023521;28;20025;-57
2021/03/27 13:33:09;;;;;;;6.50;0.70;;;;;;;;;;5018980;28;20032;-57
2021/03/27 13:36:00;;;;;;;3.78;0.50;;;;;;;;;;5034762;28;20029;-56
2021/03/27 13:38:35;;;;;;;2.08;0.57;;;;;;;;;;5035211;28;20054;-57
2021/03/27 13:41:07;;;;;;;1.17;0.43;;;;;;;;;;5053768;28;20154;-58
2021/03/27 13:43:36;;;;;;;1.17;0.60;;;;;;;;;;5035057;28;20063;-57
2021/03/27 13:46:16;;;;;;;1.38;0.60;;;;;;;;;;5055383;28;20025;-56
2021/03/27 13:49:01;;;;;;;3.97;1.42;;;;;;;;;;5040959;28;20025;-57
2021/03/27 13:51:37;;;;;;;2.40;0.35;;;;;;;;;;5038700;28;20378;-56
2021/03/27 13:57:35;;;;;;;1.92;0.85;;;;;;;;;;5056598;28;20339;-58
2021/03/27 14:00:10;;;;;;;0.60;0.25;;;;;;;;;;5057580;28;20053;-58
2021/03/27 14:02:58;;;;;;;1.48;0.65;;;;;;;;;;5039165;28;20068;-58
2021/03/27 14:05:34;;;;;;;2.13;0.65;;;;;;;;;;5039570;28;20066;-57
2021/03/27 14:08:11;;;;;;;1.25;0.60;;;;;;;;;;5038468;28;20062;-57
2021/03/27 14:10:48;;;;;;;0.80;0.30;;;;;;;;;;5056542;28;20028;-58
2021/03/27 14:13:29;;;;;;;1.65;0.70;;;;;;;;;;5056617;28;20021;-57
2021/03/27 14:16:23;;;;;;;;;;;;;;;;;;;;;
2021/03/27 14:18:58;;;;;;;5.20;0.70;;;;;;;;;;5053222;28;20047;-57
2021/03/27 14:21:44;;;;;;;2.55;0.85;;;;;;;;;;5056045;28;20037;-57
2021/03/27 14:24:29;;;;;;;1.08;0.70;;;;;;;;;;5038508;28;20041;-58
2021/03/27 14:27:16;;;;;;;3.17;0.65;;;;;;;;;;5055822;28;20040;-57
2021/03/27 14:30:01;;;;;;;3.40;0.93;;;;;;;;;;5055400;28;20029;-56
2021/03/27 14:32:31;;;;;;;2.97;1.02;;;;;;;;;;5023754;28;20051;-57
2021/03/27 14:35:00;;;;;;;2.10;0.65;;;;;;;;;;5038094;28;20032;-57
2021/03/27 14:37:38;;;;;;;3.33;0.90;;;;;;;;;;5056060;28;20037;-56
2021/03/27 14:40:13;;;;;;;1.92;0.73;;;;;;;;;;5055874;28;20083;-58
2021/03/27 14:42:58;;;;;;;0.77;0.30;;;;;;;;;;5038428;28;20029;-56
2021/03/27 14:45:49;;;;;;;1.20;0.38;;;;;;;;;;5056813;28;20051;-57
2021/03/27 14:48:18;;;;;;;2.95;1.25;;;;;;;;;;5048734;28;20033;-56
2021/03/27 14:51:05;;;;;;;2.35;0.82;;;;;;;;;;5056196;28;20494;-58
2021/03/27 14:54:05;;;;;;;1.77;0.73;;;;;;;;;;5055811;28;20028;-58
2021/03/27 14:56:41;;;;;;;0.68;0.30;;;;;;;;;;5037600;28;20025;-57
2021/03/27 15:02:21;;;;;;;1.85;0.80;;;;;;;;;;5055943;28;20041;-56
2021/03/27 15:04:56;;;;;;;3.17;0.60;;;;;;;;;;5055844;28;20056;-58
2021/03/27 15:07:59;;;;;;;1.35;0.73;;;;;;;;;;5056202;28;20395;-58
2021/03/27 15:10:28;;;;;;;3.58;0.50;;;;;;;;;;4954914;29;20079;-58
2021/03/27 15:13:12;;;;;;;1.40;0.60;;;;;;;;;;5039082;28;20140;-57
2021/03/27 15:16:00;;;;;;;2.00;0.65;;;;;;;;;;5037511;28;20116;-57
2021/03/27 15:18:33;;;;;;;1.88;0.75;;;;;;;;;;5039498;28;20029;-57
2021/03/27 15:21:10;;;;;;;4.90;0.85;;;;;;;;;;5055149;28;20371;-58
2021/03/27 15:24:08;;;;;;;1.38;0.40;;;;;;;;;;5037360;28;20033;-58
2021/03/27 15:29:40;;;;;;;1.40;0.32;;;;;;;;;;5055246;28;20072;-58
2021/03/27 15:32:34;;;;;;;2.17;1.25;;;;;;;;;;5055326;28;20028;-58
2021/03/27 15:35:11;;;;;;;0.98;0.50;;;;;;;;;;5037853;28;20037;-58
2021/03/27 15:37:47;;;;;;;3.05;1.30;;;;;;;;;;5054482;28;20029;-59
2021/03/27 15:40:41;;;;;;;6.53;0.88;;;;;;;;;;5051699;28;20039;-58
2021/03/27 15:43:26;;;;;;;4.18;0.55;;;;;;;;;;5036992;28;20063;-56
2021/03/27 15:46:07;;;;;;;1.25;0.57;;;;;;;;;;5055254;28;20028;-59
2021/03/27 15:48:51;;;;;;;1.75;0.77;;;;;;;;;;5054828;28;20549;-58
2021/03/27 15:51:20;;;;;;;3.33;1.05;;;;;;;;;;5054454;28;20199;-58
2021/03/27 15:54:04;;;;;;;1.17;0.70;;;;;;;;;;5055012;28;20487;-58
2021/03/27 15:56:53;;;;;;;3.47;0.93;;;;;;;;;;5054942;28;20028;-59
2021/03/27 15:59:22;;;;;;;2.83;0.90;;;;;;;;;;5036383;28;20076;-58
2021/03/27 16:02:11;;;;;;;2.17;0.77;;;;;;;;;;5054042;28;20069;-56
2021/03/27 16:04:46;;;;;;;1.02;0.40;;;;;;;;;;5053963;28;20446;-58
2021/03/27 16:10:27;;;;;;;1.48;0.40;;;;;;;;;;5054254;28;20037;-58
2021/03/27 16:12:54;;;;;;;0.68;0.30;;;;;;;;;;5036243;28;20037;-58
2021/03/27 16:15:39;;;;;;;1.23;0.77;;;;;;;;;;5054191;28;20037;-58
2021/03/27 16:18:19;;;;;;;1.48;0.70;;;;;;;;;;5053899;28;20459;-58
2021/03/27 16:20:51;;;;;;;2.30;0.73;;;;;;;;;;5053839;28;20483;-58
2021/03/27 16:23:26;;;;;;;0.93;0.43;;;;;;;;;;5054879;28;20029;-58
2021/03/27 16:25:55;;;;;;;1.17;0.60;;;;;;;;;;5035706;28;20025;-58
2021/03/27 16:28:28;;;;;;;3.22;0.88;;;;;;;;;;5035996;28;20031;-56
2021/03/27 16:31:12;;;;;;;1.88;0.68;;;;;;;;;;5054450;28;20040;-58
2021/03/27 16:33:53;;;;;;;1.10;0.47;;;;;;;;;;5053923;28;20467;-58
2021/03/27 16:36:40;;;;;;;1.27;0.55;;;;;;;;;;5053948;28;20053;-58
2021/03/27 16:39:28;;;;;;;0.47;0.20;;;;;;;;;;5053842;28;20025;-58
2021/03/27 16:42:26;;;;;;;3.22;0.75;;;;;;;;;;5036154;28;20033;-58
2021/03/27 16:45:12;;;;;;;2.85;1.13;;;;;;;;;;5053459;28;20108;-58
2021/03/27 16:47:59;;;;;;;2.67;0.98;;;;;;;;;;5053333;28;20108;-58
2021/03/27 16:50:48;;;;;;;2.47;0.93;;;;;;;;;;5036961;28;20025;-59
2021/03/27 16:53:26;;;;;;;2.58;0.57;;;;;;;;;;5054638;28;20040;-58
2021/03/27 16:56:13;;;;;;;1.92;0.93;;;;;;;;;;5054500;28;20116;-59
2021/03/27 16:58:58;;;;;;;2.40;0.70;;;;;;;;;;5035152;28;20048;-58
2021/03/27 17:01:33;;;;;;;3.13;1.02;;;;;;;;;;5053143;28;20498;-59
2021/03/27 17:04:11;;;;;;;2.15;0.95;;;;;;;;;;5053977;28;20048;-58
2021/03/27 17:06:55;;;;;;;1.90;0.70;;;;;;;;;;5019668;28;20029;-58
2021/03/27 17:09:24;;;;;;;2.03;0.95;;;;;;;;;;5053372;28;20036;-59
2021/03/27 17:12:12;;;;;;;2.15;1.30;;;;;;;;;;5052633;28;20044;-56
2021/03/27 17:14:44;;;;;;;1.42;0.68;;;;;;;;;;5053394;28;20147;-57
2021/03/27 17:17:19;;;;;;;4.78;1.02;;;;;;;;;;5035862;28;20437;-57
2021/03/27 17:19:54;;;;;;;3.50;1.00;;;;;;;;;;5055298;28;20028;-58
2021/03/27 17:22:45;;;;;;;2.90;0.68;;;;;;;;;;5057740;28;20040;-58
2021/03/27 17:28:16;;;;;;;1.25;0.40;;;;;;;;;;5049903;28;19914;-57
2021/03/27 17:31:12;;;;;;;1.85;0.88;;;;;;;;;;5057861;28;20029;-57
2021/03/27 17:33:44;;;;;;;1.10;0.52;;;;;;;;;;5013261;28;20051;-57
2021/03/27 17:36:29;;;;;;;2.80;1.17;;;;;;;;;;5039422;28;20041;-57
2021/03/27 17:39:22;;;;;;;3.60;0.80;;;;;;;;;;5039305;28;20056;-57